createdAt,value
2023-01-20T05:17:40.087Z,-1.69
2023-01-20T05:20:06.933Z,-1.63
2023-01-20T05:22:33.500Z,-1.54
2023-01-20T05:25:00.271Z,-1.75
2023-01-20T05:27:26.768Z,-1.67
2023-01-20T05:30:09.161Z,-1.58
2023-01-20T05:32:36.865Z,-2.35
2023-01-20T05:35:03.990Z,-1.98
2023-01-20T05:37:30.458Z,-1.75
2023-01-20T05:39:56.961Z,-1.76
2023-01-20T05:42:23.477Z,-1.68
2023-01-20T05:44:51.094Z,-1.46
2023-01-20T05:47:17.638Z,-1.30
2023-01-20T05:49:44.344Z,-1.53
2023-01-20T05:52:10.858Z,-1.32
2023-01-20T05:54:37.383Z,-1.34
2023-01-20T05:57:05.378Z,-1.26
2023-01-20T05:59:31.969Z,-1.22
2023-01-20T06:02:07.546Z,-1.18
2023-01-20T06:04:34.207Z,-1.42
2023-01-20T06:07:00.831Z,-1.31
2023-01-20T06:09:27.350Z,-1.31
2023-01-20T06:11:53.859Z,-1.43
2023-01-20T06:14:20.357Z,-1.37
2023-01-20T06:16:49.992Z,-1.24
2023-01-20T06:19:16.535Z,-1.69
2023-01-20T06:21:46.751Z,-1.30
2023-01-20T06:24:13.936Z,-1.77
2023-01-20T06:26:40.615Z,-1.47
2023-01-20T06:29:08.204Z,-1.36
2023-01-20T06:31:34.756Z,-1.25
2023-01-20T06:34:13.907Z,-1.25
2023-01-20T06:36:40.496Z,-1.38
2023-01-20T06:39:06.971Z,-1.31
2023-01-20T06:41:33.719Z,-1.27
2023-01-20T06:44:04.486Z,-1.42
2023-01-20T06:46:30.992Z,-1.78
2023-01-20T06:49:00.598Z,-1.62
2023-01-20T06:51:29.581Z,-1.87
2023-01-20T06:53:59.218Z,-2.06
2023-01-20T06:56:25.854Z,-2.64
2023-01-20T06:58:52.628Z,-2.63
2023-01-20T07:01:27.069Z,-2.10
2023-01-20T07:03:58.892Z,-2.13
2023-01-20T07:06:38.428Z,-1.97
2023-01-20T07:09:11.897Z,-1.95
2023-01-20T07:11:39.927Z,-1.65
2023-01-20T07:14:28.271Z,-1.49
2023-01-20T07:16:54.751Z,-1.59
2023-01-20T07:19:21.329Z,-1.46
2023-01-20T07:21:50.002Z,-1.58
2023-01-20T07:24:17.802Z,-1.52
2023-01-20T07:26:48.304Z,-1.33
2023-01-20T07:29:18.029Z,-1.25
2023-01-20T07:31:47.924Z,-1.20
2023-01-20T07:34:14.471Z,-1.48
2023-01-20T07:36:46.144Z,-1.31
2023-01-20T07:39:13.136Z,-1.26
2023-01-20T07:41:39.763Z,-1.40
2023-01-20T07:44:06.267Z,-1.21
2023-01-20T07:46:32.752Z,-1.03
2023-01-20T07:48:59.464Z,-1.04
2023-01-20T07:51:26.086Z,-1.03
2023-01-20T07:53:53.648Z,-0.91
2023-01-20T07:56:25.835Z,-1.14
2023-01-20T07:58:53.835Z,-1.03
2023-01-20T08:01:23.330Z,-0.91
2023-01-20T08:03:50.677Z,-0.83
2023-01-20T08:06:19.817Z,-1.02
2023-01-20T08:08:49.009Z,-0.86
2023-01-20T08:11:19.268Z,-0.73
2023-01-20T08:13:46.584Z,-0.86
2023-01-20T08:16:16.061Z,-0.84
2023-01-20T08:18:42.851Z,-0.69
2023-01-20T08:21:21.051Z,-0.61
2023-01-20T08:23:48.036Z,-1.03
2023-01-20T08:26:14.948Z,-0.77
2023-01-20T08:28:41.523Z,-0.68
2023-01-20T08:31:10.782Z,-0.61
2023-01-20T08:33:42.997Z,-0.94
2023-01-20T08:36:15.083Z,-0.93
2023-01-20T08:38:42.166Z,-0.64
2023-01-20T08:41:18.028Z,-1.03
2023-01-20T08:43:50.739Z,-1.20
2023-01-20T08:46:21.180Z,-1.10
2023-01-20T08:48:49.154Z,-1.66
2023-01-20T08:51:24.346Z,-1.59
2023-01-20T08:53:51.615Z,-1.04
2023-01-20T08:56:19.162Z,-1.88
2023-01-20T08:58:46.833Z,-1.90
2023-01-20T09:01:19.362Z,-2.05
2023-01-20T09:04:03.048Z,-1.35
2023-01-20T09:06:37.172Z,-2.42
2023-01-20T09:09:04.669Z,-1.75
2023-01-20T09:11:31.575Z,-1.86
2023-01-20T09:13:58.337Z,-1.35
2023-01-20T09:16:26.907Z,-1.44
2023-01-20T09:18:53.488Z,-2.42
2023-01-20T09:21:20.981Z,-1.88
2023-01-20T09:23:48.285Z,-1.70
2023-01-20T09:26:33.440Z,-2.64
2023-01-20T09:29:08.891Z,-2.48
2023-01-20T09:31:38.778Z,-1.97
2023-01-20T09:34:05.851Z,-2.94
2023-01-20T09:36:33.427Z,-3.19
2023-01-20T09:39:18.582Z,-2.92
2023-01-20T09:42:07.831Z,-2.58
2023-01-20T09:44:48.322Z,-2.99
2023-01-20T09:47:46.786Z,-2.58
2023-01-20T09:50:50.853Z,-2.31
2023-01-20T09:53:38.818Z,-2.53
2023-01-20T09:56:14.108Z,-2.24
2023-01-20T09:59:01.627Z,-2.33
2023-01-20T10:01:40.114Z,-1.90
2023-01-20T10:04:20.529Z,-2.34
2023-01-20T10:06:55.251Z,-2.43
2023-01-20T10:09:34.054Z,-1.59
2023-01-20T10:12:15.782Z,-1.48
2023-01-20T10:14:49.040Z,-1.38
2023-01-20T10:17:30.987Z,-1.45
2023-01-20T10:20:21.567Z,-0.87
2023-01-20T10:22:56.439Z,-1.30
2023-01-20T10:25:37.030Z,-0.76
2023-01-20T10:28:28.918Z,-0.64
2023-01-20T10:31:03.129Z,-0.39
2023-01-20T10:33:44.167Z,-0.29
2023-01-20T10:36:19.401Z,-0.10
2023-01-20T10:39:02.806Z,0.03
2023-01-20T10:41:34.895Z,0.34
2023-01-20T10:44:01.787Z,0.42
2023-01-20T10:46:52.643Z,-0.21
2023-01-20T10:49:29.374Z,-1.10
2023-01-20T10:52:22.526Z,-1.44
2023-01-20T10:55:05.861Z,-1.41
2023-01-20T10:57:35.098Z,-1.34
2023-01-20T11:00:15.582Z,-0.81
2023-01-20T11:02:42.246Z,-0.44
2023-01-20T11:05:19.563Z,-0.07
2023-01-20T11:07:49.337Z,0.27
2023-01-20T11:10:27.229Z,0.22
2023-01-20T11:12:59.637Z,0.40
2023-01-20T11:15:32.386Z,0.71
2023-01-20T11:18:14.328Z,-0.26
2023-01-20T11:21:02.515Z,-0.19
2023-01-20T11:23:37.573Z,-0.69
2023-01-20T11:26:17.960Z,-0.40
2023-01-20T11:29:10.368Z,0.47
2023-01-20T11:31:53.466Z,0.75
2023-01-20T11:34:35.109Z,-0.03
2023-01-20T11:37:04.801Z,0.04
2023-01-20T11:39:57.854Z,0.53
2023-01-20T11:42:41.603Z,1.03
2023-01-20T11:45:23.866Z,1.05
2023-01-20T11:48:16.332Z,1.14
2023-01-20T11:50:56.141Z,1.00
2023-01-20T11:53:28.002Z,0.91
2023-01-20T11:55:59.765Z,1.03
2023-01-20T11:58:29.111Z,1.16
2023-01-20T12:01:05.317Z,1.26
2023-01-20T12:03:43.974Z,1.00
2023-01-20T12:06:15.181Z,0.79
2023-01-20T12:08:56.693Z,1.16
2023-01-20T12:11:37.236Z,1.44
2023-01-20T12:14:25.399Z,1.43
2023-01-20T12:17:17.522Z,1.59
2023-01-20T12:20:06.587Z,1.65
2023-01-20T12:23:01.252Z,1.83
2023-01-20T12:25:33.726Z,1.98
2023-01-20T12:28:13.916Z,2.25
2023-01-20T12:30:49.781Z,2.82
2023-01-20T12:33:55.971Z,3.34
2023-01-20T12:36:31.640Z,3.53
2023-01-20T12:39:17.753Z,4.20
2023-01-20T12:42:02.992Z,4.51
2023-01-20T12:44:51.020Z,4.58
2023-01-20T12:47:20.529Z,4.34
2023-01-20T12:50:23.781Z,4.06
2023-01-20T12:53:21.392Z,3.64
2023-01-20T12:56:23.824Z,4.11
2023-01-20T12:58:58.591Z,3.85
2023-01-20T13:01:52.467Z,3.72
2023-01-20T13:04:50.587Z,3.41
2023-01-20T13:07:26.152Z,3.22
2023-01-20T13:10:18.508Z,3.20
2023-01-20T13:13:14.603Z,2.88
2023-01-20T13:16:04.134Z,2.32
2023-01-20T13:18:49.286Z,2.33
2023-01-20T13:21:21.154Z,2.34
2023-01-20T13:23:49.975Z,2.52
2023-01-20T13:26:17.338Z,2.49
2023-01-20T13:28:52.680Z,2.60
2023-01-20T13:31:45.942Z,3.01
2023-01-20T13:37:32.138Z,4.24
2023-01-20T13:40:00.337Z,4.08
2023-01-20T13:42:38.024Z,3.45
2023-01-20T13:45:14.402Z,3.36
2023-01-20T13:47:59.476Z,3.20
2023-01-20T13:50:39.420Z,2.88
2023-01-20T13:53:21.185Z,2.53
2023-01-20T13:55:48.202Z,2.57
2023-01-20T13:58:15.522Z,2.23
2023-01-20T14:00:42.713Z,2.34
2023-01-20T14:03:21.712Z,2.48
2023-01-20T14:05:58.250Z,2.35
2023-01-20T14:08:26.912Z,2.39
2023-01-20T14:11:07.665Z,2.33
2023-01-20T14:13:34.216Z,2.26
2023-01-20T14:16:01.333Z,2.22
2023-01-20T14:18:28.072Z,2.14
2023-01-20T14:20:59.772Z,2.09
2023-01-20T14:23:30.831Z,2.01
2023-01-20T14:25:59.417Z,2.04
2023-01-20T14:28:26.011Z,2.01
2023-01-20T14:31:12.595Z,2.00
2023-01-20T14:34:15.143Z,1.94
2023-01-20T14:36:41.785Z,2.05
2023-01-20T14:39:21.780Z,2.09
2023-01-20T14:41:59.619Z,2.12
2023-01-20T14:44:29.068Z,2.09
2023-01-20T14:46:58.273Z,2.02
2023-01-20T14:49:32.886Z,2.12
2023-01-20T14:52:02.131Z,2.20
2023-01-20T14:54:34.624Z,2.15
2023-01-20T14:57:17.566Z,2.11
2023-01-20T14:59:44.332Z,1.95
2023-01-20T15:02:30.086Z,2.07
2023-01-20T15:04:56.902Z,2.21
2023-01-20T15:07:24.566Z,2.25
2023-01-20T15:10:01.701Z,2.08
2023-01-20T15:12:33.931Z,2.08
2023-01-20T15:15:06.583Z,2.06
2023-01-20T15:17:33.128Z,2.00
2023-01-20T15:19:59.648Z,1.89
2023-01-20T15:22:27.359Z,1.98
2023-01-20T15:24:54.745Z,1.99
2023-01-20T15:27:33.424Z,1.95
2023-01-20T15:30:23.575Z,1.91
2023-01-20T15:32:51.381Z,1.75
2023-01-20T15:35:22.992Z,1.81
2023-01-20T15:37:50.453Z,1.71
2023-01-20T15:40:19.959Z,1.69
2023-01-20T15:42:49.156Z,1.73
2023-01-20T15:45:17.303Z,1.46
2023-01-20T15:47:46.057Z,1.51
2023-01-20T15:50:15.674Z,1.49
2023-01-20T15:52:42.745Z,1.50
2023-01-20T15:55:19.804Z,1.43
2023-01-20T15:57:51.006Z,1.51
2023-01-20T16:00:23.396Z,1.33
2023-01-20T16:02:50.510Z,1.45
2023-01-20T16:05:17.808Z,1.53
2023-01-20T16:07:46.920Z,1.47
2023-01-20T16:10:19.584Z,1.46
2023-01-20T16:12:46.869Z,1.58
2023-01-20T16:15:16.326Z,1.45
2023-01-20T16:17:43.056Z,1.40
2023-01-20T16:20:39.180Z,1.32
2023-01-20T16:23:05.691Z,1.40
2023-01-20T16:25:32.769Z,1.32
2023-01-20T16:27:59.412Z,1.31
2023-01-20T16:30:29.276Z,1.39
2023-01-20T16:32:55.829Z,1.28
2023-01-20T16:35:23.686Z,1.24
2023-01-20T16:37:53.031Z,1.27
2023-01-20T16:40:22.185Z,1.18
2023-01-20T16:42:48.804Z,1.24
2023-01-20T16:45:23.627Z,1.25
2023-01-20T16:47:50.575Z,1.30
2023-01-20T16:50:18.493Z,1.27
2023-01-20T16:52:45.606Z,1.17
2023-01-20T16:55:13.554Z,1.13
2023-01-20T16:57:40.230Z,1.06
2023-01-20T17:00:07.814Z,1.19
2023-01-20T17:02:34.311Z,1.21
2023-01-20T17:05:00.866Z,1.16
2023-01-20T17:07:27.721Z,1.08
2023-01-20T17:09:54.305Z,1.04
2023-01-20T17:12:22.955Z,1.02
2023-01-20T17:14:49.493Z,1.01
2023-01-20T17:17:16.094Z,1.03
2023-01-20T17:19:53.495Z,1.16
2023-01-20T17:22:46.700Z,1.06
2023-01-20T17:25:16.775Z,1.20
2023-01-20T17:27:44.913Z,1.07
2023-01-20T17:30:11.638Z,1.16
2023-01-20T17:32:38.245Z,1.17
2023-01-20T17:35:05.244Z,1.18
2023-01-20T17:37:31.867Z,0.90
2023-01-20T17:40:09.457Z,1.08
2023-01-20T17:42:35.978Z,1.04
2023-01-20T17:45:03.462Z,0.81
2023-01-20T17:47:31.459Z,0.73
2023-01-20T17:49:58.156Z,0.97
2023-01-20T17:52:24.754Z,0.81
2023-01-20T17:54:54.693Z,0.90
2023-01-20T17:57:21.227Z,0.78
2023-01-20T17:59:47.800Z,0.37
2023-01-20T18:02:14.472Z,0.72
2023-01-20T18:04:40.952Z,0.68
2023-01-20T18:07:07.552Z,0.64
2023-01-20T18:09:34.340Z,0.77
2023-01-20T18:12:00.815Z,0.80
2023-01-20T18:14:27.281Z,0.76
2023-01-20T18:16:54.422Z,0.83
2023-01-20T18:19:20.986Z,0.82
2023-01-20T18:21:47.498Z,0.78
2023-01-20T18:24:14.004Z,0.88
2023-01-20T18:26:42.667Z,0.91
2023-01-20T18:29:16.676Z,0.83
2023-01-20T18:31:44.747Z,0.88
2023-01-20T18:34:13.137Z,0.84
2023-01-20T18:36:41.856Z,0.66
2023-01-20T18:39:16.479Z,0.29
2023-01-20T18:41:43.855Z,-0.28
2023-01-20T18:44:12.609Z,-0.45
2023-01-20T18:46:39.170Z,-0.66
2023-01-20T18:49:09.290Z,-0.51
2023-01-20T18:51:36.387Z,-0.17
2023-01-20T18:54:09.604Z,-0.34
2023-01-20T18:56:36.513Z,-0.44
2023-01-20T18:59:05.699Z,-0.70
2023-01-20T19:01:35.895Z,-1.07
2023-01-20T19:04:04.187Z,-0.83
2023-01-20T19:06:34.765Z,-0.36
2023-01-20T19:09:01.744Z,-0.29
2023-01-20T19:11:34.413Z,0.02
2023-01-20T19:14:00.927Z,0.19
2023-01-20T19:16:32.460Z,0.26
2023-01-20T19:19:04.972Z,0.24
2023-01-20T19:21:33.122Z,0.34
2023-01-20T19:24:05.646Z,0.39
2023-01-20T19:26:34.979Z,0.45
2023-01-20T19:29:11.804Z,0.24
2023-01-20T19:31:39.647Z,0.16
2023-01-20T19:34:10.283Z,0.26
2023-01-20T19:36:37.282Z,0.44
2023-01-20T19:39:05.066Z,0.45
2023-01-20T19:41:39.670Z,0.49
2023-01-20T19:44:06.671Z,0.50
2023-01-20T19:46:35.583Z,0.40
2023-01-20T19:49:02.509Z,0.50
2023-01-20T19:51:31.257Z,0.00
2023-01-20T19:53:59.778Z,0.29
2023-01-20T19:56:28.287Z,0.15
2023-01-20T19:58:55.048Z,-0.13
2023-01-20T20:01:24.315Z,0.18
2023-01-20T20:03:51.968Z,0.32
2023-01-20T20:06:29.182Z,0.40
2023-01-20T20:09:00.923Z,0.46
2023-01-20T20:11:28.865Z,0.39
2023-01-20T20:13:59.581Z,0.39
2023-01-20T20:16:28.193Z,0.51
2023-01-20T20:18:55.843Z,0.53
2023-01-20T20:21:23.114Z,0.54
2023-01-20T20:23:51.294Z,0.40
2023-01-20T20:26:18.783Z,0.34
2023-01-20T20:28:45.516Z,0.30
2023-01-20T20:31:12.262Z,0.37
2023-01-20T20:33:38.815Z,0.40
2023-01-20T20:36:09.741Z,0.34
2023-01-20T20:38:40.167Z,0.10
2023-01-20T20:41:08.603Z,0.11
2023-01-20T20:43:36.631Z,0.06
2023-01-20T20:46:05.430Z,0.14
2023-01-20T20:48:33.670Z,0.20
2023-01-20T20:51:11.911Z,0.08
2023-01-20T20:53:39.802Z,0.06
2023-01-20T20:56:08.959Z,0.02
2023-01-20T20:58:36.562Z,0.00
2023-01-20T21:01:08.959Z,0.06
2023-01-20T21:04:03.546Z,0.17
2023-01-20T21:06:31.338Z,0.24
2023-01-20T21:08:58.792Z,0.09
2023-01-20T21:11:25.833Z,0.05
2023-01-20T21:13:53.135Z,-0.03
2023-01-20T21:16:23.602Z,0.12
2023-01-20T21:18:52.443Z,0.22
2023-01-20T21:21:20.079Z,0.01
2023-01-20T21:23:55.148Z,0.08
2023-01-20T21:26:22.929Z,-0.04
2023-01-20T21:28:49.654Z,-0.14
2023-01-20T21:31:19.262Z,-0.03
2023-01-20T21:33:53.822Z,-0.10
2023-01-20T21:36:21.492Z,0.02
2023-01-20T21:38:48.287Z,0.18
2023-01-20T21:41:15.597Z,0.03
2023-01-20T21:44:02.986Z,0.17
2023-01-20T21:46:39.182Z,-0.13
2023-01-20T21:49:25.700Z,-0.15
2023-01-20T21:52:14.955Z,-0.12
2023-01-20T21:54:41.898Z,-0.27
2023-01-20T21:57:12.473Z,-0.48
2023-01-20T21:59:39.310Z,-0.50
2023-01-20T22:02:07.131Z,-0.24
2023-01-20T22:04:34.110Z,-0.08
2023-01-20T22:07:06.377Z,-0.13
2023-01-20T22:09:34.092Z,-0.00
2023-01-20T22:12:00.585Z,-0.17
2023-01-20T22:14:27.252Z,-0.36
2023-01-20T22:16:53.826Z,-0.15
2023-01-20T22:19:20.282Z,0.06
2023-01-20T22:21:46.783Z,-0.21
2023-01-20T22:24:13.285Z,-0.05
2023-01-20T22:26:40.651Z,-0.07
2023-01-20T22:29:10.809Z,-0.06
2023-01-20T22:31:37.415Z,-0.01
2023-01-20T22:34:05.187Z,-0.01
2023-01-20T22:36:32.936Z,-0.18
2023-01-20T22:38:59.753Z,-0.10
2023-01-20T22:41:30.674Z,-0.04
2023-01-20T22:43:58.204Z,0.01
2023-01-20T22:46:26.996Z,0.06
2023-01-20T22:48:56.058Z,-0.00
2023-01-20T22:51:27.937Z,0.02
2023-01-20T22:53:56.007Z,-0.27
2023-01-20T22:56:25.255Z,-0.26
2023-01-20T22:58:51.898Z,-0.12
